sensor_id;sensor_type;location;lat;lon;timestamp;P1;durP1;ratioP1;P2;durP2;ratioP2
23304;SDS011;11821;51.456;8.844;2023-03-05T00:01:19;9.55;;;2.85;;
23304;SDS011;11821;51.456;8.844;2023-03-05T00:03:50;8.52;;;3.20;;
23304;SDS011;11821;51.456;8.844;2023-03-05T00:06:17;7.43;;;3.20;;
23304;SDS011;11821;51.456;8.844;2023-03-05T00:08:43;10.02;;;3.33;;
23304;SDS011;11821;51.456;8.844;2023-03-05T00:11:10;6.03;;;3.05;;
23304;SDS011;11821;51.456;8.844;2023-03-05T00:13:37;11.38;;;2.92;;
23304;SDS011;11821;51.456;8.844;2023-03-05T00:16:04;6.38;;;2.67;;
23304;SDS011;11821;51.456;8.844;2023-03-05T00:18:31;5.88;;;2.75;;
23304;SDS011;11821;51.456;8.844;2023-03-05T00:20:58;7.78;;;2.72;;
23304;SDS011;11821;51.456;8.844;2023-03-05T00:23:25;7.68;;;2.42;;
23304;SDS011;11821;51.456;8.844;2023-03-05T00:25:51;9.18;;;3.10;;
23304;SDS011;11821;51.456;8.844;2023-03-05T00:28:18;5.43;;;2.63;;
23304;SDS011;11821;51.456;8.844;2023-03-05T00:30:44;7.07;;;2.50;;
23304;SDS011;11821;51.456;8.844;2023-03-05T00:33:11;9.10;;;2.97;;
23304;SDS011;11821;51.456;8.844;2023-03-05T00:35:42;7.85;;;2.55;;
23304;SDS011;11821;51.456;8.844;2023-03-05T00:38:08;4.82;;;2.28;;
23304;SDS011;11821;51.456;8.844;2023-03-05T00:40:36;7.47;;;2.90;;
23304;SDS011;11821;51.456;8.844;2023-03-05T00:43:02;11.68;;;2.97;;
23304;SDS011;11821;51.456;8.844;2023-03-05T00:45:29;7.93;;;2.83;;
23304;SDS011;11821;51.456;8.844;2023-03-05T00:47:55;7.60;;;2.55;;
23304;SDS011;11821;51.456;8.844;2023-03-05T00:50:22;7.85;;;2.33;;
23304;SDS011;11821;51.456;8.844;2023-03-05T00:52:48;5.72;;;1.70;;
23304;SDS011;11821;51.456;8.844;2023-03-05T00:55:14;7.68;;;2.58;;
23304;SDS011;11821;51.456;8.844;2023-03-05T00:57:41;6.07;;;2.38;;
23304;SDS011;11821;51.456;8.844;2023-03-05T01:00:08;4.78;;;1.70;;
23304;SDS011;11821;51.456;8.844;2023-03-05T01:02:34;5.57;;;1.98;;
23304;SDS011;11821;51.456;8.844;2023-03-05T01:05:01;9.00;;;1.90;;
23304;SDS011;11821;51.456;8.844;2023-03-05T01:07:27;3.60;;;1.40;;
23304;SDS011;11821;51.456;8.844;2023-03-05T01:09:53;8.45;;;1.80;;
23304;SDS011;11821;51.456;8.844;2023-03-05T01:12:20;5.93;;;2.40;;
23304;SDS011;11821;51.456;8.844;2023-03-05T01:14:46;9.05;;;1.80;;
23304;SDS011;11821;51.456;8.844;2023-03-05T01:17:13;6.90;;;3.20;;
23304;SDS011;11821;51.456;8.844;2023-03-05T01:19:40;6.28;;;1.95;;
23304;SDS011;11821;51.456;8.844;2023-03-05T01:22:06;4.57;;;1.48;;
23304;SDS011;11821;51.456;8.844;2023-03-05T01:24:33;3.97;;;1.75;;
23304;SDS011;11821;51.456;8.844;2023-03-05T01:26:59;5.03;;;1.30;;
23304;SDS011;11821;51.456;8.844;2023-03-05T01:29:26;4.07;;;1.40;;
23304;SDS011;11821;51.456;8.844;2023-03-05T01:31:52;4.30;;;1.25;;
23304;SDS011;11821;51.456;8.844;2023-03-05T01:34:19;6.68;;;1.67;;
23304;SDS011;11821;51.456;8.844;2023-03-05T01:36:45;8.38;;;2.08;;
23304;SDS011;11821;51.456;8.844;2023-03-05T01:39:15;7.15;;;1.70;;
23304;SDS011;11821;51.456;8.844;2023-03-05T01:41:42;6.28;;;1.35;;
23304;SDS011;11821;51.456;8.844;2023-03-05T01:44:24;6.50;;;1.50;;
23304;SDS011;11821;51.456;8.844;2023-03-05T01:46:51;5.72;;;1.35;;
23304;SDS011;11821;51.456;8.844;2023-03-05T01:49:18;3.83;;;1.50;;
23304;SDS011;11821;51.456;8.844;2023-03-05T01:51:48;6.70;;;1.50;;
23304;SDS011;11821;51.456;8.844;2023-03-05T01:54:17;5.95;;;1.40;;
23304;SDS011;11821;51.456;8.844;2023-03-05T01:56:44;5.53;;;1.40;;
23304;SDS011;11821;51.456;8.844;2023-03-05T01:59:11;6.75;;;1.45;;
23304;SDS011;11821;51.456;8.844;2023-03-05T02:01:40;6.80;;;1.10;;
23304;SDS011;11821;51.456;8.844;2023-03-05T02:04:08;3.70;;;1.20;;
23304;SDS011;11821;51.456;8.844;2023-03-05T02:06:35;6.18;;;1.50;;
23304;SDS011;11821;51.456;8.844;2023-03-05T02:09:02;6.63;;;1.88;;
23304;SDS011;11821;51.456;8.844;2023-03-05T02:11:29;5.72;;;1.40;;
23304;SDS011;11821;51.456;8.844;2023-03-05T02:13:55;2.53;;;1.23;;
23304;SDS011;11821;51.456;8.844;2023-03-05T02:16:22;5.43;;;1.80;;
23304;SDS011;11821;51.456;8.844;2023-03-05T02:18:49;10.70;;;1.10;;
23304;SDS011;11821;51.456;8.844;2023-03-05T02:21:23;5.75;;;1.55;;
23304;SDS011;11821;51.456;8.844;2023-03-05T02:23:52;7.07;;;1.67;;
23304;SDS011;11821;51.456;8.844;2023-03-05T02:26:19;7.13;;;1.25;;
23304;SDS011;11821;51.456;8.844;2023-03-05T02:28:47;5.15;;;1.10;;
23304;SDS011;11821;51.456;8.844;2023-03-05T02:31:15;8.60;;;1.42;;
23304;SDS011;11821;51.456;8.844;2023-03-05T02:33:42;6.22;;;1.17;;
23304;SDS011;11821;51.456;8.844;2023-03-05T02:36:10;5.65;;;1.50;;
23304;SDS011;11821;51.456;8.844;2023-03-05T02:38:37;8.15;;;2.17;;
23304;SDS011;11821;51.456;8.844;2023-03-05T02:41:04;11.65;;;1.33;;
23304;SDS011;11821;51.456;8.844;2023-03-05T02:43:30;5.10;;;1.40;;
23304;SDS011;11821;51.456;8.844;2023-03-05T02:45:57;4.60;;;1.83;;
23304;SDS011;11821;51.456;8.844;2023-03-05T02:48:23;10.93;;;1.75;;
23304;SDS011;11821;51.456;8.844;2023-03-05T02:50:50;12.60;;;2.00;;
23304;SDS011;11821;51.456;8.844;2023-03-05T02:53:16;4.85;;;1.52;;
23304;SDS011;11821;51.456;8.844;2023-03-05T02:55:45;7.70;;;1.80;;
23304;SDS011;11821;51.456;8.844;2023-03-05T02:58:11;9.40;;;2.65;;
23304;SDS011;11821;51.456;8.844;2023-03-05T03:00:38;6.80;;;1.88;;
23304;SDS011;11821;51.456;8.844;2023-03-05T03:03:04;10.07;;;2.28;;
23304;SDS011;11821;51.456;8.844;2023-03-05T03:05:31;10.45;;;1.98;;
23304;SDS011;11821;51.456;8.844;2023-03-05T03:07:57;8.20;;;2.33;;
23304;SDS011;11821;51.456;8.844;2023-03-05T03:10:24;8.73;;;1.75;;
23304;SDS011;11821;51.456;8.844;2023-03-05T03:12:50;4.78;;;1.60;;
23304;SDS011;11821;51.456;8.844;2023-03-05T03:15:17;14.18;;;2.00;;
23304;SDS011;11821;51.456;8.844;2023-03-05T03:17:43;9.15;;;2.00;;
23304;SDS011;11821;51.456;8.844;2023-03-05T03:20:11;6.22;;;2.30;;
23304;SDS011;11821;51.456;8.844;2023-03-05T03:22:38;5.85;;;2.10;;
23304;SDS011;11821;51.456;8.844;2023-03-05T03:25:05;7.88;;;2.25;;
23304;SDS011;11821;51.456;8.844;2023-03-05T03:27:32;8.88;;;1.90;;
23304;SDS011;11821;51.456;8.844;2023-03-05T03:29:58;8.60;;;1.98;;
23304;SDS011;11821;51.456;8.844;2023-03-05T03:32:29;6.22;;;2.17;;
23304;SDS011;11821;51.456;8.844;2023-03-05T03:34:56;10.32;;;2.70;;
23304;SDS011;11821;51.456;8.844;2023-03-05T03:37:23;13.02;;;2.75;;
23304;SDS011;11821;51.456;8.844;2023-03-05T03:39:49;9.27;;;2.95;;
23304;SDS011;11821;51.456;8.844;2023-03-05T03:42:16;7.97;;;2.33;;
23304;SDS011;11821;51.456;8.844;2023-03-05T03:44:43;7.90;;;1.92;;
23304;SDS011;11821;51.456;8.844;2023-03-05T03:47:09;4.80;;;1.85;;
23304;SDS011;11821;51.456;8.844;2023-03-05T03:49:36;5.70;;;2.03;;
23304;SDS011;11821;51.456;8.844;2023-03-05T03:52:02;4.05;;;1.83;;
23304;SDS011;11821;51.456;8.844;2023-03-05T03:54:29;12.02;;;2.17;;
23304;SDS011;11821;51.456;8.844;2023-03-05T03:56:55;6.60;;;2.45;;
23304;SDS011;11821;51.456;8.844;2023-03-05T03:59:22;6.40;;;1.80;;
23304;SDS011;11821;51.456;8.844;2023-03-05T04:01:48;7.30;;;2.40;;
23304;SDS011;11821;51.456;8.844;2023-03-05T04:04:15;8.38;;;1.92;;
23304;SDS011;11821;51.456;8.844;2023-03-05T04:06:41;7.05;;;2.08;;
23304;SDS011;11821;51.456;8.844;2023-03-05T04:09:08;5.60;;;1.85;;
23304;SDS011;11821;51.456;8.844;2023-03-05T04:11:35;9.45;;;2.25;;
23304;SDS011;11821;51.456;8.844;2023-03-05T04:14:02;6.45;;;1.77;;
23304;SDS011;11821;51.456;8.844;2023-03-05T04:16:28;7.72;;;2.13;;
23304;SDS011;11821;51.456;8.844;2023-03-05T04:18:55;7.78;;;2.22;;
23304;SDS011;11821;51.456;8.844;2023-03-05T04:21:21;9.10;;;2.03;;
23304;SDS011;11821;51.456;8.844;2023-03-05T04:23:48;7.15;;;1.85;;
23304;SDS011;11821;51.456;8.844;2023-03-05T04:26:15;10.13;;;1.90;;
23304;SDS011;11821;51.456;8.844;2023-03-05T04:28:41;5.30;;;2.33;;
23304;SDS011;11821;51.456;8.844;2023-03-05T04:31:07;7.10;;;1.92;;
23304;SDS011;11821;51.456;8.844;2023-03-05T04:33:34;9.50;;;1.92;;
23304;SDS011;11821;51.456;8.844;2023-03-05T04:36:00;5.30;;;1.70;;
23304;SDS011;11821;51.456;8.844;2023-03-05T04:38:27;5.15;;;1.75;;
23304;SDS011;11821;51.456;8.844;2023-03-05T04:40:53;7.90;;;1.65;;
23304;SDS011;11821;51.456;8.844;2023-03-05T04:43:20;7.18;;;1.67;;
23304;SDS011;11821;51.456;8.844;2023-03-05T04:45:46;5.43;;;1.75;;
23304;SDS011;11821;51.456;8.844;2023-03-05T04:48:13;5.20;;;1.92;;
23304;SDS011;11821;51.456;8.844;2023-03-05T04:50:39;6.55;;;1.50;;
23304;SDS011;11821;51.456;8.844;2023-03-05T04:53:05;4.95;;;1.58;;
23304;SDS011;11821;51.456;8.844;2023-03-05T04:55:32;6.70;;;1.65;;
23304;SDS011;11821;51.456;8.844;2023-03-05T04:57:58;5.97;;;1.73;;
23304;SDS011;11821;51.456;8.844;2023-03-05T05:00:25;9.43;;;1.83;;
23304;SDS011;11821;51.456;8.844;2023-03-05T05:02:51;5.43;;;1.75;;
23304;SDS011;11821;51.456;8.844;2023-03-05T05:05:22;5.88;;;1.65;;
23304;SDS011;11821;51.456;8.844;2023-03-05T05:07:49;5.32;;;2.45;;
23304;SDS011;11821;51.456;8.844;2023-03-05T05:10:15;8.68;;;2.08;;
23304;SDS011;11821;51.456;8.844;2023-03-05T05:12:42;5.00;;;1.83;;
23304;SDS011;11821;51.456;8.844;2023-03-05T05:15:08;4.95;;;1.52;;
23304;SDS011;11821;51.456;8.844;2023-03-05T05:17:36;10.13;;;2.05;;
23304;SDS011;11821;51.456;8.844;2023-03-05T05:20:03;3.63;;;1.40;;
23304;SDS011;11821;51.456;8.844;2023-03-05T05:22:31;5.97;;;1.95;;
23304;SDS011;11821;51.456;8.844;2023-03-05T05:24:57;4.82;;;2.08;;
23304;SDS011;11821;51.456;8.844;2023-03-05T05:27:24;6.63;;;1.85;;
23304;SDS011;11821;51.456;8.844;2023-03-05T05:29:50;7.20;;;2.00;;
23304;SDS011;11821;51.456;8.844;2023-03-05T05:32:21;4.47;;;2.38;;
23304;SDS011;11821;51.456;8.844;2023-03-05T05:34:52;5.68;;;1.52;;
23304;SDS011;11821;51.456;8.844;2023-03-05T05:37:18;5.40;;;1.83;;
23304;SDS011;11821;51.456;8.844;2023-03-05T05:39:44;5.75;;;2.38;;
23304;SDS011;11821;51.456;8.844;2023-03-05T05:42:15;8.55;;;1.67;;
23304;SDS011;11821;51.456;8.844;2023-03-05T05:44:42;7.28;;;1.55;;
23304;SDS011;11821;51.456;8.844;2023-03-05T05:47:08;5.03;;;1.75;;
23304;SDS011;11821;51.456;8.844;2023-03-05T05:49:35;4.57;;;1.98;;
23304;SDS011;11821;51.456;8.844;2023-03-05T05:52:01;4.65;;;1.92;;
23304;SDS011;11821;51.456;8.844;2023-03-05T05:54:28;3.42;;;1.50;;
23304;SDS011;11821;51.456;8.844;2023-03-05T05:56:54;5.15;;;1.63;;
23304;SDS011;11821;51.456;8.844;2023-03-05T05:59:20;5.63;;;1.80;;
23304;SDS011;11821;51.456;8.844;2023-03-05T06:01:47;9.27;;;2.03;;
23304;SDS011;11821;51.456;8.844;2023-03-05T06:04:13;7.65;;;1.85;;
23304;SDS011;11821;51.456;8.844;2023-03-05T06:06:40;9.30;;;2.22;;
23304;SDS011;11821;51.456;8.844;2023-03-05T06:09:06;4.13;;;1.60;;
23304;SDS011;11821;51.456;8.844;2023-03-05T06:11:33;3.22;;;1.30;;
23304;SDS011;11821;51.456;8.844;2023-03-05T06:13:59;3.72;;;1.50;;
23304;SDS011;11821;51.456;8.844;2023-03-05T06:16:29;2.92;;;1.50;;
23304;SDS011;11821;51.456;8.844;2023-03-05T06:18:55;1.95;;;1.17;;
23304;SDS011;11821;51.456;8.844;2023-03-05T06:21:22;5.72;;;2.50;;
23304;SDS011;11821;51.456;8.844;2023-03-05T06:23:49;3.67;;;1.40;;
23304;SDS011;11821;51.456;8.844;2023-03-05T06:26:17;4.55;;;1.98;;
23304;SDS011;11821;51.456;8.844;2023-03-05T06:28:44;5.72;;;1.65;;
23304;SDS011;11821;51.456;8.844;2023-03-05T06:31:12;3.53;;;1.65;;
23304;SDS011;11821;51.456;8.844;2023-03-05T06:33:39;3.67;;;1.90;;
23304;SDS011;11821;51.456;8.844;2023-03-05T06:36:07;5.15;;;1.95;;
23304;SDS011;11821;51.456;8.844;2023-03-05T06:38:34;3.13;;;1.65;;
23304;SDS011;11821;51.456;8.844;2023-03-05T06:41:01;5.28;;;2.25;;
23304;SDS011;11821;51.456;8.844;2023-03-05T06:43:30;5.38;;;2.40;;
23304;SDS011;11821;51.456;8.844;2023-03-05T06:46:17;5.90;;;1.80;;
23304;SDS011;11821;51.456;8.844;2023-03-05T06:48:46;9.60;;;3.80;;
23304;SDS011;11821;51.456;8.844;2023-03-05T06:51:22;7.20;;;1.90;;
23304;SDS011;11821;51.456;8.844;2023-03-05T06:53:49;3.33;;;2.25;;
23304;SDS011;11821;51.456;8.844;2023-03-05T06:56:16;5.70;;;2.10;;
23304;SDS011;11821;51.456;8.844;2023-03-05T06:58:43;2.95;;;1.67;;
23304;SDS011;11821;51.456;8.844;2023-03-05T07:01:11;5.40;;;2.25;;
23304;SDS011;11821;51.456;8.844;2023-03-05T07:03:37;5.03;;;2.55;;
23304;SDS011;11821;51.456;8.844;2023-03-05T07:06:05;5.03;;;2.55;;
23304;SDS011;11821;51.456;8.844;2023-03-05T07:08:32;8.73;;;3.00;;
23304;SDS011;11821;51.456;8.844;2023-03-05T07:10:59;5.57;;;2.65;;
23304;SDS011;11821;51.456;8.844;2023-03-05T07:13:25;7.50;;;2.67;;
23304;SDS011;11821;51.456;8.844;2023-03-05T07:15:52;7.15;;;3.85;;
23304;SDS011;11821;51.456;8.844;2023-03-05T07:18:19;6.35;;;3.58;;
23304;SDS011;11821;51.456;8.844;2023-03-05T07:20:45;7.05;;;3.70;;
23304;SDS011;11821;51.456;8.844;2023-03-05T07:23:12;7.88;;;4.50;;
23304;SDS011;11821;51.456;8.844;2023-03-05T07:25:38;7.65;;;3.90;;
23304;SDS011;11821;51.456;8.844;2023-03-05T07:28:05;6.80;;;3.58;;
23304;SDS011;11821;51.456;8.844;2023-03-05T07:30:32;6.78;;;3.78;;
23304;SDS011;11821;51.456;8.844;2023-03-05T07:32:58;6.53;;;3.65;;
23304;SDS011;11821;51.456;8.844;2023-03-05T07:35:26;5.82;;;3.60;;
23304;SDS011;11821;51.456;8.844;2023-03-05T07:37:52;9.73;;;3.60;;
23304;SDS011;11821;51.456;8.844;2023-03-05T07:40:20;7.32;;;3.22;;
23304;SDS011;11821;51.456;8.844;2023-03-05T07:42:46;4.07;;;2.90;;
23304;SDS011;11821;51.456;8.844;2023-03-05T07:45:22;8.40;;;3.42;;
23304;SDS011;11821;51.456;8.844;2023-03-05T07:47:48;4.97;;;3.00;;
23304;SDS011;11821;51.456;8.844;2023-03-05T07:50:15;5.90;;;2.58;;
23304;SDS011;11821;51.456;8.844;2023-03-05T07:52:42;5.60;;;2.58;;
23304;SDS011;11821;51.456;8.844;2023-03-05T07:55:08;4.55;;;2.60;;
23304;SDS011;11821;51.456;8.844;2023-03-05T07:57:35;4.80;;;3.42;;
23304;SDS011;11821;51.456;8.844;2023-03-05T08:00:03;3.67;;;2.80;;
23304;SDS011;11821;51.456;8.844;2023-03-05T08:02:37;6.43;;;3.00;;
23304;SDS011;11821;51.456;8.844;2023-03-05T08:05:03;5.00;;;2.60;;
23304;SDS011;11821;51.456;8.844;2023-03-05T08:07:30;3.88;;;2.35;;
23304;SDS011;11821;51.456;8.844;2023-03-05T08:09:56;4.20;;;2.42;;
23304;SDS011;11821;51.456;8.844;2023-03-05T08:12:22;4.35;;;2.65;;
23304;SDS011;11821;51.456;8.844;2023-03-05T08:14:49;4.28;;;2.67;;
23304;SDS011;11821;51.456;8.844;2023-03-05T08:17:16;4.93;;;2.50;;
23304;SDS011;11821;51.456;8.844;2023-03-05T08:19:42;3.65;;;2.42;;
23304;SDS011;11821;51.456;8.844;2023-03-05T08:22:08;7.45;;;2.65;;
23304;SDS011;11821;51.456;8.844;2023-03-05T08:24:35;4.22;;;2.50;;
23304;SDS011;11821;51.456;8.844;2023-03-05T08:27:01;10.18;;;3.25;;
23304;SDS011;11821;51.456;8.844;2023-03-05T08:29:28;9.18;;;3.45;;
23304;SDS011;11821;51.456;8.844;2023-03-05T08:31:55;7.03;;;2.95;;
23304;SDS011;11821;51.456;8.844;2023-03-05T08:34:21;6.45;;;3.00;;
23304;SDS011;11821;51.456;8.844;2023-03-05T08:36:47;5.18;;;2.70;;
23304;SDS011;11821;51.456;8.844;2023-03-05T08:39:15;8.15;;;3.03;;
23304;SDS011;11821;51.456;8.844;2023-03-05T08:41:41;6.90;;;3.22;;
23304;SDS011;11821;51.456;8.844;2023-03-05T08:44:07;4.30;;;2.50;;
23304;SDS011;11821;51.456;8.844;2023-03-05T08:46:34;3.63;;;2.75;;
23304;SDS011;11821;51.456;8.844;2023-03-05T08:49:01;6.93;;;2.90;;
23304;SDS011;11821;51.456;8.844;2023-03-05T08:51:28;5.28;;;2.90;;
23304;SDS011;11821;51.456;8.844;2023-03-05T08:53:54;5.82;;;2.95;;
23304;SDS011;11821;51.456;8.844;2023-03-05T08:56:21;5.15;;;3.38;;
23304;SDS011;11821;51.456;8.844;2023-03-05T08:58:48;5.10;;;3.30;;
23304;SDS011;11821;51.456;8.844;2023-03-05T09:01:14;6.50;;;4.00;;
23304;SDS011;11821;51.456;8.844;2023-03-05T09:03:40;5.22;;;3.65;;
23304;SDS011;11821;51.456;8.844;2023-03-05T09:06:08;5.60;;;3.35;;
23304;SDS011;11821;51.456;8.844;2023-03-05T09:08:35;6.40;;;3.25;;
23304;SDS011;11821;51.456;8.844;2023-03-05T09:11:02;4.53;;;3.28;;
23304;SDS011;11821;51.456;8.844;2023-03-05T09:13:29;3.97;;;2.88;;
23304;SDS011;11821;51.456;8.844;2023-03-05T09:15:59;4.53;;;3.33;;
23304;SDS011;11821;51.456;8.844;2023-03-05T09:18:26;6.22;;;3.67;;
23304;SDS011;11821;51.456;8.844;2023-03-05T09:20:53;4.90;;;3.60;;
23304;SDS011;11821;51.456;8.844;2023-03-05T09:23:20;6.05;;;3.70;;
23304;SDS011;11821;51.456;8.844;2023-03-05T09:25:46;5.13;;;4.10;;
23304;SDS011;11821;51.456;8.844;2023-03-05T09:28:13;4.93;;;4.30;;
23304;SDS011;11821;51.456;8.844;2023-03-05T09:30:40;3.55;;;3.17;;
23304;SDS011;11821;51.456;8.844;2023-03-05T09:33:06;5.18;;;3.50;;
23304;SDS011;11821;51.456;8.844;2023-03-05T09:35:34;5.00;;;3.40;;
23304;SDS011;11821;51.456;8.844;2023-03-05T09:38:02;6.63;;;4.43;;
23304;SDS011;11821;51.456;8.844;2023-03-05T09:41:14;5.78;;;3.67;;
23304;SDS011;11821;51.456;8.844;2023-03-05T09:43:28;12.25;;;8.65;;
23304;SDS011;11821;51.456;8.844;2023-03-05T09:46:12;4.55;;;3.33;;
23304;SDS011;11821;51.456;8.844;2023-03-05T09:48:50;4.68;;;3.85;;
23304;SDS011;11821;51.456;8.844;2023-03-05T09:51:20;7.13;;;3.30;;
23304;SDS011;11821;51.456;8.844;2023-03-05T09:53:49;4.78;;;3.85;;
23304;SDS011;11821;51.456;8.844;2023-03-05T09:56:24;5.32;;;3.90;;
23304;SDS011;11821;51.456;8.844;2023-03-05T09:58:52;6.40;;;4.15;;
23304;SDS011;11821;51.456;8.844;2023-03-05T10:01:35;5.72;;;4.20;;
23304;SDS011;11821;51.456;8.844;2023-03-05T10:06:35;1.23;;;1.13;;
23304;SDS011;11821;51.456;8.844;2023-03-05T10:09:16;2.92;;;1.23;;
23304;SDS011;11821;51.456;8.844;2023-03-05T10:16:53;1.75;;;1.27;;
23304;SDS011;11821;51.456;8.844;2023-03-05T10:19:34;1.58;;;1.38;;
23304;SDS011;11821;51.456;8.844;2023-03-05T10:24:42;1.40;;;1.30;;
23304;SDS011;11821;51.456;8.844;2023-03-05T10:27:27;2.70;;;2.03;;
23304;SDS011;11821;51.456;8.844;2023-03-05T10:30:02;1.80;;;1.70;;
23304;SDS011;11821;51.456;8.844;2023-03-05T10:35:14;1.83;;;1.73;;
23304;SDS011;11821;51.456;8.844;2023-03-05T10:40:46;2.50;;;1.80;;
23304;SDS011;11821;51.456;8.844;2023-03-05T10:43:30;3.40;;;2.40;;
23304;SDS011;11821;51.456;8.844;2023-03-05T10:45:53;3.72;;;1.92;;
23304;SDS011;11821;51.456;8.844;2023-03-05T10:48:30;2.28;;;1.80;;
23304;SDS011;11821;51.456;8.844;2023-03-05T10:51:10;2.13;;;1.63;;
23304;SDS011;11821;51.456;8.844;2023-03-05T10:56:10;2.08;;;1.88;;
23304;SDS011;11821;51.456;8.844;2023-03-05T10:58:37;3.08;;;2.10;;
23304;SDS011;11821;51.456;8.844;2023-03-05T11:06:29;2.10;;;1.90;;
23304;SDS011;11821;51.456;8.844;2023-03-05T11:11:38;2.50;;;2.05;;
23304;SDS011;11821;51.456;8.844;2023-03-05T11:14:04;3.13;;;2.00;;
23304;SDS011;11821;51.456;8.844;2023-03-05T11:16:45;2.67;;;1.52;;
23304;SDS011;11821;51.456;8.844;2023-03-05T11:19:24;2.88;;;1.70;;
23304;SDS011;11821;51.456;8.844;2023-03-05T11:24:43;3.05;;;1.35;;
23304;SDS011;11821;51.456;8.844;2023-03-05T11:27:21;2.72;;;1.55;;
23304;SDS011;11821;51.456;8.844;2023-03-05T11:29:48;2.72;;;1.90;;
23304;SDS011;11821;51.456;8.844;2023-03-05T11:32:18;8.05;;;2.90;;
23304;SDS011;11821;51.456;8.844;2023-03-05T11:34:46;3.17;;;2.42;;
23304;SDS011;11821;51.456;8.844;2023-03-05T11:37:24;4.07;;;2.85;;
23304;SDS011;11821;51.456;8.844;2023-03-05T11:40:04;3.58;;;2.28;;
23304;SDS011;11821;51.456;8.844;2023-03-05T11:42:32;2.28;;;2.03;;
23304;SDS011;11821;51.456;8.844;2023-03-05T11:44:59;5.22;;;2.70;;
23304;SDS011;11821;51.456;8.844;2023-03-05T11:47:27;3.88;;;2.63;;
23304;SDS011;11821;51.456;8.844;2023-03-05T11:52:30;4.63;;;2.85;;
23304;SDS011;11821;51.456;8.844;2023-03-05T11:55:04;2.88;;;1.92;;
23304;SDS011;11821;51.456;8.844;2023-03-05T11:57:35;2.83;;;1.80;;
23304;SDS011;11821;51.456;8.844;2023-03-05T12:00:05;2.30;;;1.95;;
23304;SDS011;11821;51.456;8.844;2023-03-05T12:02:36;4.57;;;2.53;;
23304;SDS011;11821;51.456;8.844;2023-03-05T12:05:04;3.50;;;1.45;;
23304;SDS011;11821;51.456;8.844;2023-03-05T12:07:36;4.63;;;3.38;;
23304;SDS011;11821;51.456;8.844;2023-03-05T12:10:05;9.10;;;5.47;;
23304;SDS011;11821;51.456;8.844;2023-03-05T12:15:18;5.45;;;2.72;;
23304;SDS011;11821;51.456;8.844;2023-03-05T12:17:57;2.28;;;1.58;;
23304;SDS011;11821;51.456;8.844;2023-03-05T12:20:47;1.95;;;1.60;;
23304;SDS011;11821;51.456;8.844;2023-03-05T12:23:17;2.33;;;1.45;;
23304;SDS011;11821;51.456;8.844;2023-03-05T12:25:49;2.05;;;1.48;;
23304;SDS011;11821;51.456;8.844;2023-03-05T12:28:16;3.77;;;1.70;;
23304;SDS011;11821;51.456;8.844;2023-03-05T12:31:47;2.78;;;1.70;;
23304;SDS011;11821;51.456;8.844;2023-03-05T12:33:48;2.63;;;1.52;;
23304;SDS011;11821;51.456;8.844;2023-03-05T12:38:51;3.45;;;1.73;;
23304;SDS011;11821;51.456;8.844;2023-03-05T12:46:32;2.60;;;1.92;;
23304;SDS011;11821;51.456;8.844;2023-03-05T12:49:45;6.10;;;3.35;;
23304;SDS011;11821;51.456;8.844;2023-03-05T12:51:48;3.45;;;2.28;;
23304;SDS011;11821;51.456;8.844;2023-03-05T12:56:44;1.85;;;1.20;;
23304;SDS011;11821;51.456;8.844;2023-03-05T12:59:11;3.50;;;1.38;;
23304;SDS011;11821;51.456;8.844;2023-03-05T13:01:44;2.13;;;1.30;;
23304;SDS011;11821;51.456;8.844;2023-03-05T13:04:13;2.25;;;1.40;;
23304;SDS011;11821;51.456;8.844;2023-03-05T13:06:41;2.05;;;1.60;;
23304;SDS011;11821;51.456;8.844;2023-03-05T13:09:24;2.25;;;1.60;;
23304;SDS011;11821;51.456;8.844;2023-03-05T13:11:52;11.13;;;9.52;;
23304;SDS011;11821;51.456;8.844;2023-03-05T13:19:49;4.13;;;1.90;;
23304;SDS011;11821;51.456;8.844;2023-03-05T13:22:16;5.30;;;1.80;;
23304;SDS011;11821;51.456;8.844;2023-03-05T13:24:42;2.47;;;1.23;;
23304;SDS011;11821;51.456;8.844;2023-03-05T13:30:18;2.65;;;2.00;;
23304;SDS011;11821;51.456;8.844;2023-03-05T13:32:48;1.88;;;1.40;;
23304;SDS011;11821;51.456;8.844;2023-03-05T13:35:14;2.67;;;1.05;;
23304;SDS011;11821;51.456;8.844;2023-03-05T13:37:42;1.20;;;1.10;;
23304;SDS011;11821;51.456;8.844;2023-03-05T13:40:23;1.65;;;1.08;;
23304;SDS011;11821;51.456;8.844;2023-03-05T13:42:50;2.75;;;0.90;;
23304;SDS011;11821;51.456;8.844;2023-03-05T13:45:28;1.67;;;0.95;;
23304;SDS011;11821;51.456;8.844;2023-03-05T13:50:28;3.83;;;1.10;;
23304;SDS011;11821;51.456;8.844;2023-03-05T13:52:59;2.58;;;1.38;;
23304;SDS011;11821;51.456;8.844;2023-03-05T13:55:38;3.35;;;2.40;;
23304;SDS011;11821;51.456;8.844;2023-03-05T13:58:05;3.38;;;1.35;;
23304;SDS011;11821;51.456;8.844;2023-03-05T14:00:33;3.33;;;1.42;;
23304;SDS011;11821;51.456;8.844;2023-03-05T14:03:08;1.92;;;1.08;;
23304;SDS011;11821;51.456;8.844;2023-03-05T14:05:35;3.92;;;1.25;;
23304;SDS011;11821;51.456;8.844;2023-03-05T14:08:02;2.67;;;1.05;;
23304;SDS011;11821;51.456;8.844;2023-03-05T14:12:58;2.45;;;1.15;;
23304;SDS011;11821;51.456;8.844;2023-03-05T14:15:27;5.13;;;1.00;;
23304;SDS011;11821;51.456;8.844;2023-03-05T14:18:07;1.88;;;0.93;;
23304;SDS011;11821;51.456;8.844;2023-03-05T14:20:33;1.00;;;0.80;;
23304;SDS011;11821;51.456;8.844;2023-03-05T14:23:00;2.15;;;0.88;;
23304;SDS011;11821;51.456;8.844;2023-03-05T14:27:54;2.80;;;1.17;;
23304;SDS011;11821;51.456;8.844;2023-03-05T14:30:22;3.00;;;1.40;;
23304;SDS011;11821;51.456;8.844;2023-03-05T14:32:48;2.03;;;1.00;;
23304;SDS011;11821;51.456;8.844;2023-03-05T14:35:17;2.33;;;0.90;;
23304;SDS011;11821;51.456;8.844;2023-03-05T14:37:44;5.43;;;1.33;;
23304;SDS011;11821;51.456;8.844;2023-03-05T14:45:14;4.18;;;1.90;;
23304;SDS011;11821;51.456;8.844;2023-03-05T14:47:41;4.72;;;2.45;;
23304;SDS011;11821;51.456;8.844;2023-03-05T14:50:09;2.97;;;1.20;;
23304;SDS011;11821;51.456;8.844;2023-03-05T14:52:35;2.17;;;1.30;;
23304;SDS011;11821;51.456;8.844;2023-03-05T14:55:02;2.53;;;1.70;;
23304;SDS011;11821;51.456;8.844;2023-03-05T14:57:29;9.27;;;1.90;;
23304;SDS011;11821;51.456;8.844;2023-03-05T14:59:57;3.20;;;1.80;;
23304;SDS011;11821;51.456;8.844;2023-03-05T15:02:24;2.78;;;2.05;;
23304;SDS011;11821;51.456;8.844;2023-03-05T15:04:51;3.88;;;1.30;;
23304;SDS011;11821;51.456;8.844;2023-03-05T15:09:44;2.50;;;1.00;;
23304;SDS011;11821;51.456;8.844;2023-03-05T15:12:11;1.80;;;0.77;;
23304;SDS011;11821;51.456;8.844;2023-03-05T15:14:37;1.92;;;0.95;;
23304;SDS011;11821;51.456;8.844;2023-03-05T15:17:09;1.95;;;1.35;;
23304;SDS011;11821;51.456;8.844;2023-03-05T15:22:04;4.07;;;2.00;;
23304;SDS011;11821;51.456;8.844;2023-03-05T15:24:31;2.83;;;1.77;;
23304;SDS011;11821;51.456;8.844;2023-03-05T15:26:57;2.50;;;1.65;;
23304;SDS011;11821;51.456;8.844;2023-03-05T15:29:24;2.75;;;1.08;;
23304;SDS011;11821;51.456;8.844;2023-03-05T15:31:53;1.13;;;0.80;;
23304;SDS011;11821;51.456;8.844;2023-03-05T15:34:19;2.33;;;1.02;;
23304;SDS011;11821;51.456;8.844;2023-03-05T15:36:46;2.25;;;1.00;;
23304;SDS011;11821;51.456;8.844;2023-03-05T15:39:12;3.10;;;1.13;;
23304;SDS011;11821;51.456;8.844;2023-03-05T15:41:39;2.63;;;0.98;;
23304;SDS011;11821;51.456;8.844;2023-03-05T15:44:05;1.50;;;0.90;;
23304;SDS011;11821;51.456;8.844;2023-03-05T15:46:33;2.75;;;0.98;;
23304;SDS011;11821;51.456;8.844;2023-03-05T15:48:59;2.17;;;0.75;;
23304;SDS011;11821;51.456;8.844;2023-03-05T15:51:27;4.82;;;1.00;;
23304;SDS011;11821;51.456;8.844;2023-03-05T15:53:53;2.90;;;1.10;;
23304;SDS011;11821;51.456;8.844;2023-03-05T15:56:19;2.78;;;0.98;;
23304;SDS011;11821;51.456;8.844;2023-03-05T15:58:47;4.20;;;1.20;;
23304;SDS011;11821;51.456;8.844;2023-03-05T16:01:15;4.80;;;1.40;;
23304;SDS011;11821;51.456;8.844;2023-03-05T16:03:44;2.35;;;1.17;;
23304;SDS011;11821;51.456;8.844;2023-03-05T16:06:10;2.45;;;1.20;;